Time;durP1;ratioP1;P1;durP2;ratioP2;P2;SDS_P1;SDS_P2;PMS_P1;PMS_P2;Temp;Humidity;BMP_temperature;BMP_pressure;BME280_temperature;BME280_humidity;BME280_pressure;Samples;Min_cycle;Max_cycle;Signal;HPM_P1;HPM_P2
2022/03/25 00:04:29;;;;;;;98.47;38.70;;;;;;;5.96;52.38;101867.98;5003499;57;1138829;-71
2022/03/25 00:09:36;;;;;;;111.67;46.83;;;;;;;5.98;52.10;101865.70;4999827;57;1138815;-71
2022/03/25 00:14:42;;;;;;;112.93;47.27;;;;;;;5.91;51.90;101868.17;5032141;57;1141126;-71
2022/03/25 00:19:48;;;;;;;110.17;50.30;;;;;;;5.89;52.25;101858.63;5007039;57;1141071;-71
2022/03/25 00:24:54;;;;;;;107.40;46.43;;;;;;;5.87;52.51;101852.09;4989367;57;1140827;-71
2022/03/25 00:30:00;;;;;;;112.42;45.88;;;;;;;5.86;52.64;101850.83;5013317;57;1140970;-70
2022/03/25 00:35:07;;;;;;;103.90;46.18;;;;;;;5.83;52.47;101845.69;4965308;57;1140846;-71
2022/03/25 00:40:12;;;;;;;92.87;42.53;;;;;;;5.72;52.29;101846.09;4978397;58;1140864;-70
2022/03/25 00:45:18;;;;;;;95.53;43.73;;;;;;;5.35;52.32;101849.14;4975943;58;1139022;-71
2022/03/25 00:50:24;;;;;;;84.27;37.60;;;;;;;4.90;52.87;101847.17;4973496;58;1138997;-72
2022/03/25 00:55:30;;;;;;;94.37;39.73;;;;;;;4.77;53.54;101839.31;4966317;58;1139287;-71
2022/03/25 01:00:37;;;;;;;104.37;39.70;;;;;;;4.80;54.57;101833.12;4958772;58;1139029;-71
2022/03/25 01:05:43;;;;;;;89.70;39.63;;;;;;;4.89;54.49;101833.66;4959070;58;1140934;-71
2022/03/25 01:10:49;;;;;;;94.90;39.93;;;;;;;4.94;54.55;101838.76;4977296;58;1139231;-71
2022/03/25 01:15:55;;;;;;;87.07;37.90;;;;;;;4.97;54.68;101834.73;4953983;58;1138936;-71
2022/03/25 01:21:01;;;;;;;84.15;35.83;;;;;;;4.96;54.56;101840.88;5025441;56;1138898;-71
2022/03/25 01:26:08;;;;;;;98.10;42.53;;;;;;;4.89;54.75;101831.03;5022292;56;1139062;-71
2022/03/25 01:31:14;;;;;;;85.73;39.93;;;;;;;4.91;55.14;101825.75;5028960;57;1139023;-72
2022/03/25 01:36:20;;;;;;;87.43;40.10;;;;;;;4.85;55.05;101822.04;4979083;57;1138802;-71
2022/03/25 01:41:27;;;;;;;85.07;37.57;;;;;;;4.83;54.86;101827.33;5016416;57;1138875;-71
2022/03/25 01:46:33;;;;;;;75.30;34.40;;;;;;;4.65;54.73;101822.68;4993090;57;1138830;-71
2022/03/25 01:51:40;;;;;;;73.60;34.13;;;;;;;4.65;55.13;101823.13;4974710;57;1138871;-71
2022/03/25 01:56:48;;;;;;;81.78;35.75;;;;;;;4.54;54.96;101824.34;5001049;57;1138940;-71
2022/03/25 02:01:55;;;;;;;82.03;33.13;;;;;;;4.36;55.23;101822.74;4989155;57;1138763;-71
2022/03/25 02:07:01;;;;;;;80.92;33.95;;;;;;;4.34;55.72;101825.86;5034975;57;1138732;-71
2022/03/25 02:12:09;;;;;;;82.42;32.70;;;;;;;4.34;56.00;101829.78;5059721;57;1138751;-70
2022/03/25 02:17:15;;;;;;;71.40;29.67;;;;;;;4.21;56.01;101828.86;4992819;57;1138739;-71
2022/03/25 02:22:22;;;;;;;78.37;32.60;;;;;;;4.27;56.74;101823.91;5010548;57;1138859;-70
2022/03/25 02:27:28;;;;;;;75.47;31.87;;;;;;;4.29;56.51;101825.98;5016649;57;1138862;-70
2022/03/25 02:32:36;;;;;;;85.33;32.53;;;;;;;4.24;56.43;101823.53;4958797;57;1138787;-71
2022/03/25 02:37:41;;;;;;;70.83;31.53;;;;;;;4.23;57.02;101828.36;4960783;58;1138770;-71
2022/03/25 02:42:47;;;;;;;77.73;31.43;;;;;;;4.28;57.09;101831.30;4964697;58;1138966;-71
2022/03/25 02:47:53;;;;;;;71.67;28.77;;;;;;;4.28;57.00;101831.30;4980931;58;1138628;-70
2022/03/25 02:53:00;;;;;;;73.80;32.97;;;;;;;4.11;56.37;101835.73;4963670;58;1142558;-71
2022/03/25 02:58:07;;;;;;;73.43;30.47;;;;;;;3.80;56.43;101836.63;4952151;58;1138966;-72
2022/03/25 03:03:13;;;;;;;66.83;28.43;;;;;;;3.53;56.97;101838.23;4970448;58;1138973;-71
2022/03/25 03:08:19;;;;;;;65.10;28.10;;;;;;;3.34;58.11;101842.27;4973969;58;1138645;-72
2022/03/25 03:13:25;;;;;;;53.30;25.53;;;;;;;3.11;58.66;101842.00;4965132;58;1138989;-71
2022/03/25 03:18:32;;;;;;;59.97;26.50;;;;;;;2.81;59.42;101839.70;4961540;58;1138834;-71
2022/03/25 03:23:38;;;;;;;71.77;29.43;;;;;;;2.58;59.71;101851.16;4977282;58;1138815;-71
2022/03/25 03:28:44;;;;;;;70.47;31.47;;;;;;;2.41;59.98;101842.41;4955747;58;1138676;-71
2022/03/25 03:33:50;;;;;;;104.17;40.07;;;;;;;2.41;60.28;101846.33;4975404;57;1138718;-71
2022/03/25 03:38:55;;;;;;;69.57;31.90;;;;;;;2.68;60.90;101852.66;4976692;57;1140857;-71
2022/03/25 03:44:01;;;;;;;67.68;31.98;;;;;;;2.95;61.17;101845.44;4997122;57;1148507;-72
2022/03/25 03:49:07;;;;;;;83.20;34.25;;;;;;;3.15;60.90;101847.56;4952546;58;1138770;-71
2022/03/25 03:54:13;;;;;;;83.47;36.38;;;;;;;3.15;60.12;101844.95;5002392;57;1138717;-70
2022/03/25 03:59:37;;;;;;;82.37;37.03;;;;;;;2.91;60.14;101842.48;4969572;57;1138863;-71
2022/03/25 04:04:44;;;;;;;65.63;28.13;;;;;;;2.97;61.03;101851.94;4977624;57;1138938;-71
2022/03/25 04:09:50;;;;;;;72.90;29.33;;;;;;;3.08;61.55;101854.69;5022704;57;1138703;-71
2022/03/25 04:14:55;;;;;;;61.55;26.02;;;;;;;3.13;61.44;101848.91;4979380;57;1138701;-72
2022/03/25 04:20:01;;;;;;;66.77;30.05;;;;;;;3.03;60.58;101855.72;4960989;57;1138806;-71
2022/03/25 04:25:07;;;;;;;86.95;34.45;;;;;;;2.70;60.67;101858.70;5011132;57;1138779;-71
2022/03/25 04:30:14;;;;;;;69.90;31.17;;;;;;;2.48;61.05;101860.94;5024897;56;1138746;-71
2022/03/25 04:35:21;;;;;;;65.63;29.63;;;;;;;2.33;61.39;101857.37;5013544;57;1138736;-71
2022/03/25 04:40:28;;;;;;;70.33;29.23;;;;;;;2.21;61.73;101858.50;5032698;56;1138977;-71
2022/03/25 04:45:35;;;;;;;74.77;30.30;;;;;;;2.34;62.64;101863.00;5009955;57;1138916;-71
2022/03/25 04:50:43;;;;;;;61.17;28.70;;;;;;;2.32;62.52;101862.17;5029456;56;1138884;-72
2022/03/25 04:55:49;;;;;;;59.07;25.33;;;;;;;2.16;62.57;101869.92;4993428;56;1138919;-72
2022/03/25 05:00:56;;;;;;;60.65;26.20;;;;;;;1.95;62.99;101869.95;5001488;56;1138758;-73
2022/03/25 05:06:02;;;;;;;57.27;26.07;;;;;;;1.71;63.26;101878.66;4930697;57;1148424;-71
2022/03/25 05:11:07;;;;;;;74.10;29.52;;;;;;;1.61;63.62;101874.95;5038772;56;1139022;-72
2022/03/25 05:16:13;;;;;;;89.50;33.02;;;;;;;1.65;64.06;101884.01;5003113;56;1138877;-71
2022/03/25 05:21:19;;;;;;;96.83;30.97;;;;;;;1.89;64.73;101880.48;4976472;56;1138917;-72
2022/03/25 05:26:25;;;;;;;95.43;32.13;;;;;;;2.15;65.07;101876.89;4959482;56;1139048;-72
2022/03/25 05:31:31;;;;;;;97.20;33.30;;;;;;;2.41;64.93;101875.05;5019879;56;1138938;-71
2022/03/25 05:36:38;;;;;;;78.73;32.50;;;;;;;2.60;65.10;101874.19;5001900;56;1139239;-71
2022/03/25 05:41:44;;;;;;;65.77;30.93;;;;;;;2.69;64.71;101876.58;4988351;56;1138733;-72
2022/03/25 05:46:50;;;;;;;69.83;26.40;;;;;;;2.50;65.00;101873.97;4988663;56;1138947;-71
2022/03/25 05:51:55;;;;;;;73.50;28.60;;;;;;;2.28;65.76;101879.68;5027691;56;1138762;-71
2022/03/25 05:57:01;;;;;;;72.22;28.40;;;;;;;2.25;66.44;101878.88;5027486;56;1148328;-72
2022/03/25 06:02:08;;;;;;;72.67;28.62;;;;;;;2.39;67.34;101875.52;5030619;56;1139010;-72
2022/03/25 06:07:14;;;;;;;81.27;33.40;;;;;;;2.54;68.10;101874.31;5012180;56;1138999;-71
2022/03/25 06:12:19;;;;;;;71.40;27.97;;;;;;;2.74;68.19;101882.11;5016688;56;1138802;-71
2022/03/25 06:17:26;;;;;;;73.37;31.40;;;;;;;2.97;68.42;101875.02;4982188;56;1139125;-71
2022/03/25 06:22:33;;;;;;;70.37;26.93;;;;;;;3.12;68.35;101875.94;4975450;56;1138940;-72
2022/03/25 06:27:48;;;;;;;70.27;27.67;;;;;;;3.26;68.78;101883.43;5025450;56;1138904;-71
2022/03/25 06:32:53;;;;;;;66.33;26.63;;;;;;;3.41;68.91;101889.57;5016683;57;1139103;-71
2022/03/25 06:38:00;;;;;;;59.83;26.47;;;;;;;3.54;68.60;101892.72;5027359;57;1139043;-71
2022/03/25 06:43:06;;;;;;;61.10;29.97;;;;;;;3.68;68.99;101892.34;5032396;56;1138656;-71
2022/03/25 06:48:12;;;;;;;55.65;26.42;;;;;;;3.95;69.04;101891.61;5019336;56;1138718;-71
2022/03/25 06:53:18;;;;;;;67.77;26.70;;;;;;;4.15;68.17;101891.01;5018917;57;1138649;-71
2022/03/25 06:58:24;;;;;;;49.60;26.37;;;;;;;4.34;68.19;101894.81;4994832;57;1138780;-71
2022/03/25 07:03:30;;;;;;;53.27;26.17;;;;;;;4.63;67.51;101894.37;5031902;57;1138870;-71
2022/03/25 07:08:36;;;;;;;59.98;28.05;;;;;;;4.81;67.11;101897.28;5030209;57;1138617;-71
2022/03/25 07:13:43;;;;;;;55.23;24.67;;;;;;;5.07;66.61;101888.56;5012349;57;1138801;-72
2022/03/25 07:18:49;;;;;;;61.57;27.67;;;;;;;5.37;66.43;101893.70;5015296;56;1138815;-72
2022/03/25 07:23:55;;;;;;;53.93;27.60;;;;;;;5.65;66.04;101903.18;5037364;56;1138842;-71
2022/03/25 07:29:01;;;;;;;57.37;26.47;;;;;;;5.95;65.77;101905.69;4999166;57;1138757;-71
2022/03/25 07:34:06;;;;;;;55.83;27.57;;;;;;;6.24;65.54;101908.09;4973204;57;1138698;-72
2022/03/25 07:39:12;;;;;;;59.77;27.37;;;;;;;6.52;64.87;101912.30;4980803;57;1138687;-72
2022/03/25 07:44:18;;;;;;;70.63;30.03;;;;;;;6.86;64.70;101924.98;4952550;58;1138708;-72
2022/03/25 07:49:24;;;;;;;64.90;30.10;;;;;;;7.18;63.30;101915.31;4990411;57;1138692;-72
2022/03/25 07:54:30;;;;;;;61.37;27.47;;;;;;;7.51;63.38;101913.50;4990779;57;1138832;-71
2022/03/25 07:59:37;;;;;;;65.40;29.20;;;;;;;7.89;62.88;101908.77;4959124;57;1138995;-72
2022/03/25 08:04:43;;;;;;;63.30;30.27;;;;;;;8.28;62.81;101912.69;4968423;57;1138590;-72
2022/03/25 08:09:49;;;;;;;57.10;27.10;;;;;;;8.66;62.30;101908.78;5006365;57;1138833;-72
2022/03/25 08:14:56;;;;;;;66.20;28.27;;;;;;;8.99;62.16;101904.98;4970132;57;1139116;-73
2022/03/25 08:20:04;;;;;;;55.53;27.57;;;;;;;9.28;61.30;101913.63;5003393;57;1142078;-72
2022/03/25 08:30:34;;;;;;;65.05;31.90;;;;;;;9.79;61.03;101918.49;4995635;56;1138918;-72
2022/03/25 08:35:41;;;;;;;70.63;32.73;;;;;;;10.02;60.70;101926.09;5030240;56;1140807;-72
2022/03/25 08:40:47;;;;;;;51.53;26.83;;;;;;;10.26;59.51;101923.09;5030020;57;1143023;-71
2022/03/25 08:45:54;;;;;;;66.10;32.63;;;;;;;10.45;59.33;101924.66;5059462;57;1142839;-72
2022/03/25 08:50:59;;;;;;;71.40;34.10;;;;;;;10.71;59.72;101929.83;5055857;56;1195164;-72
2022/03/25 08:56:05;;;;;;;63.93;32.30;;;;;;;10.95;59.19;101929.41;5011422;56;1142990;-72
2022/03/25 09:01:11;;;;;;;60.58;31.87;;;;;;;11.02;58.03;101934.25;5033878;56;1143324;-72
2022/03/25 09:06:17;;;;;;;70.00;33.58;;;;;;;11.15;57.28;101913.25;5030125;57;1143081;-72
2022/03/25 09:11:22;;;;;;;64.37;34.33;;;;;;;11.20;56.73;101919.11;5042039;56;1143243;-72
2022/03/25 09:16:28;;;;;;;72.60;37.07;;;;;;;11.34;56.77;101920.48;5010925;57;1142897;-72
2022/03/25 09:21:35;;;;;;;69.12;36.20;;;;;;;11.42;56.61;101926.20;5021881;56;1143068;-72
2022/03/25 09:26:41;;;;;;;70.00;34.60;;;;;;;11.54;56.17;101925.47;5022266;56;1142986;-72
2022/03/25 09:31:46;;;;;;;75.23;36.60;;;;;;;11.61;55.19;101920.64;5036995;57;1142909;-72
2022/03/25 09:36:52;;;;;;;66.23;32.00;;;;;;;11.72;56.33;101918.70;4971519;57;1142938;-72
2022/03/25 09:42:00;;;;;;;65.27;33.63;;;;;;;12.02;55.40;101920.84;5005507;57;1143090;-72
2022/03/25 09:47:06;;;;;;;61.97;33.20;;;;;;;12.28;55.60;101920.08;4952249;57;1142893;-72
2022/03/25 09:52:12;;;;;;;64.85;32.98;;;;;;;12.43;54.31;101923.56;5034023;57;1143266;-72
2022/03/25 09:57:19;;;;;;;64.07;30.48;;;;;;;12.67;53.83;101910.56;4964859;57;1143052;-72
2022/03/25 10:02:25;;;;;;;64.80;35.13;;;;;;;12.87;52.09;101903.46;4973374;57;1142975;-72
2022/03/25 10:07:32;;;;;;;67.07;32.47;;;;;;;12.97;52.70;101902.41;4992621;57;1142936;-72
2022/03/25 10:12:42;;;;;;;65.80;33.77;;;;;;;13.13;51.60;101895.13;4961102;57;1143252;-72
2022/03/25 10:18:05;;;;;;;56.93;31.13;;;;;;;13.31;51.64;101896.57;5023352;57;1143086;-72
2022/03/25 10:23:19;;;;;;;61.53;31.73;;;;;;;13.53;50.85;101895.13;4972465;57;1143137;-72
2022/03/25 10:28:32;;;;;;;60.53;34.17;;;;;;;13.69;49.19;101886.48;4952797;57;1143193;-72
2022/03/25 10:33:52;;;;;;;58.77;31.27;;;;;;;13.78;49.46;101886.31;4935554;58;1143405;-72
2022/03/25 10:39:13;;;;;;;46.90;24.43;;;;;;;13.94;50.18;101880.30;4919376;58;1142835;-72
2022/03/25 10:44:14;;;;;;;49.42;24.23;;;;;;;14.05;46.44;101885.23;4948671;58;1143177;-73
2022/03/25 10:49:21;;;;;;;49.35;27.87;;;;;;;14.22;47.64;101879.19;4926415;58;1143168;-73
2022/03/25 10:54:29;;;;;;;39.47;20.90;;;;;;;14.53;47.00;101882.72;4936246;58;1142827;-73
2022/03/25 10:59:36;;;;;;;31.87;15.77;;;;;;;14.57;44.78;101885.54;4936219;58;1142992;-72
2022/03/25 11:04:43;;;;;;;32.73;16.70;;;;;;;14.68;45.01;101879.42;4960255;58;1142747;-72
2022/03/25 11:09:48;;;;;;;30.90;16.23;;;;;;;14.88;46.81;101874.82;4921435;58;1142877;-72
2022/03/25 11:14:54;;;;;;;37.63;18.60;;;;;;;15.13;46.65;101857.83;4904570;58;1143102;-72
2022/03/25 11:20:01;;;;;;;33.20;16.33;;;;;;;14.96;45.80;101863.13;4919722;58;1142869;-72
2022/03/25 11:25:10;;;;;;;31.77;15.60;;;;;;;14.97;46.32;101848.81;4944156;58;1142881;-72
2022/03/25 11:30:16;;;;;;;28.67;15.98;;;;;;;15.12;45.67;101847.66;4986158;57;1143041;-72
2022/03/25 11:35:24;;;;;;;30.60;16.27;;;;;;;15.31;46.83;101845.78;4988336;57;1142898;-72
2022/03/25 11:40:30;;;;;;;34.18;19.55;;;;;;;15.46;45.87;101841.94;5018707;57;1142811;-72
2022/03/25 11:45:38;;;;;;;40.77;18.50;;;;;;;15.59;45.69;101847.20;4968722;57;1143222;-73
2022/03/25 11:50:47;;;;;;;42.70;19.63;;;;;;;15.67;46.98;101841.29;5025463;57;1142871;-72
2022/03/25 11:56:11;;;;;;;35.75;17.92;;;;;;;15.73;45.83;101837.67;5001463;57;1142966;-72
2022/03/25 12:01:20;;;;;;;28.70;16.43;;;;;;;15.91;47.04;101827.83;4953341;58;1143059;-72
2022/03/25 12:06:31;;;;;;;38.07;16.97;;;;;;;16.16;46.50;101815.09;5005518;57;1143107;-72
2022/03/25 12:11:56;;;;;;;36.13;18.27;;;;;;;16.31;46.42;101807.66;4951643;58;1143079;-72
2022/03/25 12:17:07;;;;;;;36.42;17.20;;;;;;;16.33;45.53;101796.86;5008169;57;1143089;-72
2022/03/25 12:22:27;;;;;;;31.20;18.13;;;;;;;16.41;44.93;101796.58;4977902;57;1143406;-72
2022/03/25 12:27:33;;;;;;;28.23;15.27;;;;;;;16.36;45.45;101796.10;4992630;57;1142974;-72
2022/03/25 12:32:39;;;;;;;35.87;17.60;;;;;;;16.47;45.42;101786.75;5005320;57;1143135;-72
2022/03/25 12:38:08;;;;;;;34.80;18.27;;;;;;;16.62;44.73;101782.45;5025410;57;1143038;-72
2022/03/25 12:43:14;;;;;;;35.45;18.27;;;;;;;16.48;44.57;101775.09;5017832;57;1142978;-71
2022/03/25 12:48:25;;;;;;;30.75;15.18;;;;;;;16.57;46.08;101773.95;5000905;56;1142953;-72
2022/03/25 12:53:31;;;;;;;33.50;16.60;;;;;;;16.75;44.09;101769.30;5007095;57;1142899;-72
2022/03/25 12:58:40;;;;;;;27.93;16.00;;;;;;;16.82;44.12;101753.59;5015615;56;1143587;-72
2022/03/25 13:03:47;;;;;;;40.20;16.50;;;;;;;16.82;44.12;101753.59;5032918;56;1143073;-72
2022/03/25 13:09:04;;;;;;;30.13;14.77;;;;;;;16.93;44.63;101748.21;5011488;56;1143159;-72
2022/03/25 13:14:15;;;;;;;28.40;14.33;;;;;;;16.97;44.32;101755.45;4996535;57;1143025;-72
2022/03/25 13:19:32;;;;;;;24.30;15.13;;;;;;;17.12;44.40;101746.98;5009087;56;1143019;-72
2022/03/25 13:24:58;;;;;;;25.48;16.00;;;;;;;17.09;44.68;101744.59;5037125;56;1142825;-73
2022/03/25 13:30:07;;;;;;;23.43;12.93;;;;;;;17.07;44.36;101735.84;5003667;56;1142910;-73
2022/03/25 13:35:15;;;;;;;29.00;15.20;;;;;;;17.15;44.43;101737.84;4953656;58;1143141;-72
2022/03/25 13:40:44;;;;;;;31.42;17.70;;;;;;;17.31;44.08;101738.71;4954585;58;1142842;-73
2022/03/25 13:46:09;;;;;;;30.33;15.33;;;;;;;17.30;44.63;101728.50;4961127;58;1142974;-73
2022/03/25 13:51:33;;;;;;;25.60;14.83;;;;;;;17.47;45.23;101735.06;4958915;58;1143149;-73
2022/03/25 13:56:49;;;;;;;30.27;14.27;;;;;;;17.64;45.17;101725.11;4968145;57;1143070;-73
2022/03/25 14:01:54;;;;;;;22.73;14.90;;;;;;;17.69;43.55;101724.70;4948987;58;1256205;-73
2022/03/25 14:07:03;;;;;;;30.40;13.83;;;;;;;17.70;43.53;101719.72;4971456;58;1143625;-73
2022/03/25 14:12:22;;;;;;;23.67;13.30;;;;;;;17.73;44.03;101717.59;4963583;57;1143035;-73
2022/03/25 14:17:41;;;;;;;23.47;12.73;;;;;;;17.82;43.42;101712.77;4978851;58;1143039;-72
2022/03/25 14:22:53;;;;;;;25.40;12.17;;;;;;;17.73;43.43;101713.58;4956093;58;1142922;-72
2022/03/25 14:28:10;;;;;;;22.43;12.00;;;;;;;17.59;42.86;101705.41;4964670;58;1142948;-73
2022/03/25 14:33:17;;;;;;;27.30;12.58;;;;;;;17.58;42.94;101705.05;4992721;57;1142971;-73
2022/03/25 14:38:22;;;;;;;25.35;11.12;;;;;;;17.54;43.12;101694.28;5007567;57;1142974;-73
2022/03/25 14:43:28;;;;;;;17.13;11.47;;;;;;;17.63;42.85;101692.61;4960407;56;1143033;-73
2022/03/25 14:48:34;;;;;;;25.53;14.37;;;;;;;17.61;42.74;101685.70;4996904;56;1143102;-73
2022/03/25 14:53:40;;;;;;;22.30;12.07;;;;;;;17.69;43.24;101680.07;4956572;57;1143028;-72
2022/03/25 14:58:46;;;;;;;31.50;13.60;;;;;;;17.82;42.81;101669.95;4992675;57;1143210;-73
2022/03/25 15:03:52;;;;;;;31.93;13.93;;;;;;;17.69;42.74;101664.50;5007930;56;1142925;-73
2022/03/25 15:08:58;;;;;;;25.87;12.37;;;;;;;17.63;42.61;101664.52;4998628;56;1143177;-74
2022/03/25 15:14:03;;;;;;;38.03;14.53;;;;;;;17.63;42.97;101660.99;5035967;56;1143357;-73
2022/03/25 15:19:09;;;;;;;19.20;11.33;;;;;;;17.59;43.13;101653.73;5029634;56;1143006;-74
2022/03/25 15:24:15;;;;;;;22.00;12.58;;;;;;;17.53;41.89;101648.45;5010050;57;1143015;-73
2022/03/25 15:34:43;;;;;;;20.80;11.00;;;;;;;17.56;42.82;101654.88;4966242;57;1143055;-72
2022/03/25 15:40:03;;;;;;;25.40;12.50;;;;;;;17.40;41.40;101652.35;5018599;56;1142882;-73
2022/03/25 15:45:10;;;;;;;28.87;14.07;;;;;;;17.26;42.26;101642.03;5024875;57;1143041;-74
2022/03/25 15:50:15;;;;;;;24.80;15.50;;;;;;;17.20;42.48;101644.25;5014495;57;1142907;-73
2022/03/25 15:55:21;;;;;;;29.50;13.58;;;;;;;17.07;42.87;101644.13;5020372;57;1142898;-73
2022/03/25 16:00:33;;;;;;;27.55;15.45;;;;;;;17.01;43.29;101634.80;5005378;57;1143200;-72
2022/03/25 16:05:39;;;;;;;26.73;15.17;;;;;;;16.98;43.02;101634.20;4976857;57;1142804;-73
2022/03/25 16:10:46;;;;;;;41.07;22.10;;;;;;;16.83;43.35;101638.56;4939108;57;1143044;-72
2022/03/25 16:15:53;;;;;;;67.77;32.10;;;;;;;16.77;43.38;101629.77;5015925;57;1143086;-73
2022/03/25 16:21:00;;;;;;;133.87;68.07;;;;;;;16.71;43.77;101638.29;5020335;57;1142998;-73
2022/03/25 16:26:08;;;;;;;48.33;26.10;;;;;;;16.65;43.77;101640.66;5013163;56;1144955;-72
2022/03/25 16:31:13;;;;;;;40.07;17.73;;;;;;;16.55;43.90;101641.88;5034713;56;1142938;-72
2022/03/25 16:36:20;;;;;;;32.10;16.93;;;;;;;16.42;44.17;101643.41;5009073;56;1142871;-72
2022/03/25 16:41:26;;;;;;;30.05;16.48;;;;;;;16.24;44.56;101632.09;5001916;56;1143090;-73
2022/03/25 16:46:33;;;;;;;33.73;17.63;;;;;;;16.08;44.90;101633.84;4993474;57;1142836;-72
2022/03/25 16:51:38;;;;;;;30.93;16.70;;;;;;;15.92;45.07;101632.94;5030792;56;1260501;-72
2022/03/25 16:56:44;;;;;;;47.60;18.10;;;;;;;15.78;45.30;101635.41;5002779;56;1143250;-72
2022/03/25 17:01:50;;;;;;;64.77;19.77;;;;;;;15.63;45.51;101633.13;4951812;57;1142864;-73
2022/03/25 17:06:56;;;;;;;33.33;21.12;;;;;;;15.48;45.75;101635.19;4941606;58;1143031;-72
2022/03/25 17:12:02;;;;;;;47.07;23.33;;;;;;;15.34;45.98;101640.78;4939327;57;1145264;-72
2022/03/25 17:17:07;;;;;;;62.83;38.50;;;;;;;15.21;46.16;101646.25;5010204;57;1143042;-73
2022/03/25 17:22:14;;;;;;;606.03;395.30;;;;;;;15.08;46.42;101644.19;4966324;56;1143140;-72
2022/03/25 17:27:20;;;;;;;306.37;180.60;;;;;;;14.99;46.55;101639.08;4956667;56;1147254;-72
2022/03/25 17:32:26;;;;;;;112.10;53.63;;;;;;;14.86;46.61;101646.33;5013480;57;1147058;-72
2022/03/25 17:37:32;;;;;;;70.90;31.87;;;;;;;14.72;46.85;101647.89;5024753;57;1144974;-73
2022/03/25 17:42:37;;;;;;;65.32;27.07;;;;;;;14.60;47.13;101652.83;4979840;57;1143156;-72
2022/03/25 17:47:44;;;;;;;118.30;29.97;;;;;;;14.58;47.37;101660.08;4980972;56;1142887;-72
2022/03/25 17:52:50;;;;;;;76.80;22.58;;;;;;;14.49;47.39;101664.30;5032379;57;1144980;-72
2022/03/25 17:57:56;;;;;;;54.23;23.37;;;;;;;14.36;47.56;101665.66;5014675;56;1143022;-72
2022/03/25 18:03:03;;;;;;;64.73;27.67;;;;;;;14.27;47.79;101665.02;4971466;57;1143031;-72
2022/03/25 18:08:15;;;;;;;65.37;27.63;;;;;;;14.18;48.09;101665.73;5007120;56;1142894;-72
2022/03/25 18:13:17;;;;;;;61.15;26.70;;;;;;;14.12;48.22;101666.65;4997065;57;1142868;-73
2022/03/25 18:18:24;;;;;;;149.97;68.12;;;;;;;13.99;48.34;101666.71;4963694;57;1143291;-72
2022/03/25 18:23:30;;;;;;;105.37;50.80;;;;;;;13.88;48.73;101667.51;5013793;56;1145109;-72
2022/03/25 18:28:36;;;;;;;98.07;30.90;;;;;;;13.91;49.06;101675.72;4987630;56;1145093;-72
2022/03/25 18:33:41;;;;;;;82.00;32.60;;;;;;;13.85;48.99;101670.86;4990995;57;1143015;-72
2022/03/25 18:38:48;;;;;;;94.43;49.23;;;;;;;13.68;49.10;101681.39;5007279;56;1143155;-73
2022/03/25 18:43:54;;;;;;;91.57;38.93;;;;;;;13.64;49.64;101683.89;5006398;56;1143017;-72
2022/03/25 18:49:00;;;;;;;84.00;36.73;;;;;;;13.57;49.95;101690.15;5030124;56;1142956;-72
2022/03/25 18:54:06;;;;;;;52.20;24.32;;;;;;;13.49;50.10;101689.83;4968074;56;1143268;-72
2022/03/25 18:59:12;;;;;;;82.40;34.60;;;;;;;13.43;50.50;101698.73;5009111;56;1145937;-73
2022/03/25 19:04:17;;;;;;;67.32;31.23;;;;;;;13.36;50.74;101695.64;5010614;57;1142992;-72
2022/03/25 19:09:23;;;;;;;80.53;35.50;;;;;;;13.35;50.88;101698.78;5020088;56;1143037;-72
2022/03/25 19:14:29;;;;;;;100.65;47.43;;;;;;;13.24;50.74;101696.52;4958182;55;1142988;-72
2022/03/25 19:19:35;;;;;;;121.90;48.17;;;;;;;13.14;50.95;101709.53;4976146;55;1145143;-72
2022/03/25 19:24:41;;;;;;;114.17;42.03;;;;;;;13.07;51.16;101713.59;5009302;56;1145116;-72
2022/03/25 19:29:47;;;;;;;139.63;45.80;;;;;;;12.92;51.18;101719.47;5017577;55;1145284;-72
2022/03/25 19:34:52;;;;;;;123.37;46.00;;;;;;;12.78;51.33;101716.06;5012135;56;1145087;-72
2022/03/25 19:39:59;;;;;;;164.77;50.20;;;;;;;12.60;51.61;101707.05;5021292;57;1145144;-73
2022/03/25 19:45:08;;;;;;;163.77;48.37;;;;;;;12.51;51.83;101705.02;4985948;56;1145251;-72
2022/03/25 19:50:14;;;;;;;135.33;48.13;;;;;;;12.30;51.95;101705.11;4973988;56;1145278;-72
2022/03/25 19:55:21;;;;;;;128.02;45.52;;;;;;;12.30;51.95;101705.11;5011486;56;1145043;-72
2022/03/25 20:00:27;;;;;;;154.97;55.33;;;;;;;12.18;52.42;101711.22;5012099;56;1145200;-72
2022/03/25 20:05:32;;;;;;;160.23;57.20;;;;;;;12.08;52.72;101709.62;5005120;56;1144933;-72
2022/03/25 20:10:38;;;;;;;342.57;114.03;;;;;;;12.01;52.88;101714.97;4974041;56;1145069;-72
2022/03/25 20:15:44;;;;;;;372.07;118.30;;;;;;;11.95;53.22;101721.50;5010749;56;1147536;-73
2022/03/25 20:20:50;;;;;;;395.27;132.67;;;;;;;11.85;53.15;101720.88;4979305;57;1147027;-72
2022/03/25 20:25:55;;;;;;;370.67;124.53;;;;;;;11.73;53.44;101725.61;5019123;55;1147200;-72
2022/03/25 20:31:01;;;;;;;389.23;135.97;;;;;;;11.56;53.46;101724.86;5002458;56;1146930;-71
2022/03/25 20:36:07;;;;;;;311.53;115.30;;;;;;;11.37;53.92;101736.21;5002615;56;1146937;-71
2022/03/25 20:41:14;;;;;;;254.68;98.42;;;;;;;11.20;54.41;101733.74;4991206;56;1156657;-73
2022/03/25 20:46:19;;;;;;;226.07;86.45;;;;;;;11.17;54.84;101736.09;5028073;56;1145154;-72
2022/03/25 20:51:26;;;;;;;220.27;86.20;;;;;;;11.10;54.81;101744.52;4996874;56;1144880;-72
2022/03/25 20:56:32;;;;;;;240.50;94.53;;;;;;;11.02;55.30;101739.67;4979203;57;1145273;-72
2022/03/25 21:01:40;;;;;;;796.57;254.53;;;;;;;10.94;55.22;101740.61;5029894;56;1145116;-71
2022/03/25 21:06:45;;;;;;;374.70;113.43;;;;;;;10.85;55.46;101742.47;4992911;56;1147037;-71
2022/03/25 21:11:51;;;;;;;440.47;151.17;;;;;;;10.79;56.01;101733.58;5031495;56;1147047;-71
2022/03/25 21:16:57;;;;;;;313.73;109.07;;;;;;;10.75;56.39;101726.77;5034718;56;1147642;-71
2022/03/25 21:22:03;;;;;;;351.37;119.23;;;;;;;10.69;56.39;101725.34;4976995;56;1147253;-71
2022/03/25 21:27:09;;;;;;;343.77;121.97;;;;;;;10.62;56.48;101727.95;4989875;57;1147105;-71
2022/03/25 21:32:16;;;;;;;308.13;112.67;;;;;;;10.51;56.59;101731.23;4960031;57;1147055;-72
2022/03/25 21:37:21;;;;;;;217.03;81.17;;;;;;;10.45;57.02;101722.79;5014609;57;1147097;-71
2022/03/25 21:42:28;;;;;;;225.67;85.47;;;;;;;10.38;56.94;101713.53;5028760;56;1144993;-71
2022/03/25 21:47:34;;;;;;;187.03;71.03;;;;;;;10.18;56.64;101719.91;5015035;56;1144987;-73
2022/03/25 21:52:40;;;;;;;179.87;69.43;;;;;;;9.95;56.95;101724.30;5040044;56;1142905;-72
2022/03/25 21:57:46;;;;;;;194.20;71.93;;;;;;;9.87;57.99;101718.98;5011289;56;1140980;-72
2022/03/25 22:02:52;;;;;;;185.37;73.20;;;;;;;9.83;58.00;101727.16;5037460;57;1141003;-72
2022/03/25 22:07:57;;;;;;;147.98;60.67;;;;;;;9.78;58.21;101719.95;4990710;56;1141741;-72
2022/03/25 22:13:09;;;;;;;124.25;63.48;;;;;;;9.74;58.27;101723.25;5018597;56;1140809;-73
2022/03/25 22:18:12;;;;;;;128.43;61.57;;;;;;;9.64;58.64;101717.21;5011975;56;1141066;-72
2022/03/25 22:23:17;;;;;;;120.57;58.93;;;;;;;9.52;58.98;101718.27;5007891;56;1141030;-73
2022/03/25 22:28:23;;;;;;;182.32;73.90;;;;;;;9.28;59.61;101724.02;5041678;56;1140935;-72
2022/03/25 22:33:30;;;;;;;312.50;112.03;;;;;;;9.15;60.22;101717.22;5009846;56;1140880;-73
2022/03/25 22:38:35;;;;;;;381.70;134.30;;;;;;;9.10;60.62;101706.90;4990838;56;1142974;-72
2022/03/25 22:43:41;;;;;;;352.20;131.20;;;;;;;9.02;60.76;101713.49;5007993;56;1143149;-72
2022/03/25 22:48:47;;;;;;;295.80;125.70;;;;;;;9.00;61.02;101714.92;5010326;56;1142978;-72
2022/03/25 22:53:54;;;;;;;572.67;220.13;;;;;;;9.00;61.18;101711.42;5052198;56;1143367;-72
2022/03/25 22:59:02;;;;;;;444.33;167.90;;;;;;;8.91;61.13;101710.10;4990641;56;1143114;-72